createdAt,value
2022-10-21T00:01:00.375Z,20.87
2022-10-21T00:03:27.909Z,20.50
2022-10-21T00:05:55.105Z,19.83
2022-10-21T00:08:22.752Z,21.53
2022-10-21T00:10:54.576Z,21.60
2022-10-21T00:13:22.550Z,20.97
2022-10-21T00:16:15.418Z,21.83
2022-10-21T00:18:46.008Z,21.13
2022-10-21T00:21:19.347Z,20.00
2022-10-21T00:23:47.280Z,22.23
2022-10-21T00:26:15.401Z,20.10
2022-10-21T00:28:42.810Z,20.30
2022-10-21T00:31:12.541Z,20.97
2022-10-21T00:33:40.104Z,21.83
2022-10-21T00:36:08.229Z,21.03
2022-10-21T00:38:36.352Z,20.77
2022-10-21T00:41:03.223Z,20.13
2022-10-21T00:43:31.178Z,21.70
2022-10-21T00:46:02.694Z,19.80
2022-10-21T00:48:37.117Z,19.83
2022-10-21T00:51:14.117Z,20.20
2022-10-21T00:53:44.802Z,20.17
2022-10-21T00:56:20.499Z,20.20
2022-10-21T00:58:48.352Z,20.73
2022-10-21T01:01:19.137Z,21.13
2022-10-21T01:03:48.585Z,19.80
2022-10-21T01:06:16.482Z,21.63
2022-10-21T01:08:44.189Z,20.97
2022-10-21T01:11:18.133Z,21.47
2022-10-21T01:13:59.041Z,21.10
2022-10-21T01:16:37.754Z,20.80
2022-10-21T01:19:33.769Z,20.50
2022-10-21T01:22:16.154Z,20.23
2022-10-21T01:24:51.580Z,20.07
2022-10-21T01:28:03.656Z,20.73
2022-10-21T01:30:38.218Z,19.17
2022-10-21T01:33:13.881Z,20.07
2022-10-21T01:35:52.607Z,19.63
2022-10-21T01:38:46.896Z,18.73
2022-10-21T01:41:15.795Z,19.90
2022-10-21T01:44:04.227Z,18.30
2022-10-21T01:46:56.681Z,17.77
2022-10-21T01:49:56.394Z,17.37
2022-10-21T01:52:24.140Z,18.60
2022-10-21T01:54:58.263Z,18.60
2022-10-21T01:57:29.411Z,17.10
2022-10-21T01:59:59.382Z,19.33
2022-10-21T02:02:33.148Z,18.13
2022-10-21T02:05:08.942Z,19.13
2022-10-21T02:07:36.124Z,18.97
2022-10-21T02:10:04.304Z,18.93
2022-10-21T02:12:34.101Z,17.90
2022-10-21T02:15:04.477Z,19.23
2022-10-21T02:17:32.093Z,18.37
2022-10-21T02:20:03.737Z,19.27
2022-10-21T02:22:34.070Z,18.57
2022-10-21T02:25:04.146Z,19.10
2022-10-21T02:27:31.579Z,19.57
2022-10-21T02:30:00.935Z,18.70
2022-10-21T02:32:52.718Z,20.07
2022-10-21T02:35:22.710Z,19.33
2022-10-21T02:38:06.118Z,19.27
2022-10-21T02:40:41.968Z,18.93
2022-10-21T02:43:48.914Z,19.40
2022-10-21T02:46:16.350Z,20.43
2022-10-21T02:48:48.329Z,20.20
2022-10-21T02:51:16.298Z,19.50
2022-10-21T02:53:43.456Z,20.23
2022-10-21T02:56:10.599Z,20.73
2022-10-21T02:58:37.589Z,20.33
2022-10-21T03:01:04.601Z,21.83
2022-10-21T03:03:31.543Z,21.50
2022-10-21T03:05:58.712Z,21.77
2022-10-21T03:08:25.883Z,22.97
2022-10-21T03:10:53.745Z,22.83
2022-10-21T03:13:21.626Z,22.83
2022-10-21T03:15:49.770Z,22.27
2022-10-21T03:18:17.346Z,22.63
2022-10-21T03:20:44.539Z,23.03
2022-10-21T03:23:11.447Z,23.53
2022-10-21T03:25:38.484Z,23.10
2022-10-21T03:28:05.622Z,24.17
2022-10-21T03:30:32.734Z,23.70
2022-10-21T03:32:59.657Z,22.70
2022-10-21T03:35:27.430Z,23.37
2022-10-21T03:37:54.497Z,24.30
2022-10-21T03:40:23.812Z,24.43
2022-10-21T03:42:50.945Z,24.90
2022-10-21T03:45:17.894Z,24.97
2022-10-21T03:47:44.836Z,24.60
2022-10-21T03:50:13.958Z,24.73
2022-10-21T03:52:43.721Z,25.00
2022-10-21T03:55:10.897Z,25.97
2022-10-21T03:57:38.110Z,25.63
2022-10-21T04:00:06.295Z,26.13
2022-10-21T04:02:33.236Z,26.77
2022-10-21T04:05:00.352Z,26.00
2022-10-21T04:07:27.503Z,25.83
2022-10-21T04:09:54.818Z,27.97
2022-10-21T04:12:25.462Z,27.03
2022-10-21T04:14:53.640Z,26.33
2022-10-21T04:17:20.671Z,27.23
2022-10-21T04:19:47.614Z,26.43
2022-10-21T04:22:14.519Z,26.10
2022-10-21T04:24:41.568Z,28.57
2022-10-21T04:27:08.630Z,27.07
2022-10-21T04:29:35.889Z,28.60
2022-10-21T04:32:03.271Z,28.37
2022-10-21T04:34:30.260Z,29.53
2022-10-21T04:36:59.860Z,29.00
2022-10-21T04:39:29.803Z,28.57
2022-10-21T04:41:56.863Z,28.77
2022-10-21T04:44:24.225Z,30.80
2022-10-21T04:46:51.177Z,30.20
2022-10-21T04:49:18.417Z,28.83
2022-10-21T04:51:45.653Z,30.40
2022-10-21T04:54:13.713Z,29.90
2022-10-21T04:56:42.133Z,30.23
2022-10-21T04:59:10.228Z,30.33
2022-10-21T05:01:37.635Z,31.27
2022-10-21T05:04:04.728Z,30.50
2022-10-21T05:06:32.363Z,30.77
2022-10-21T05:08:59.451Z,31.00
2022-10-21T05:11:26.630Z,32.57
2022-10-21T05:13:53.623Z,33.03
2022-10-21T05:16:20.714Z,32.13
2022-10-21T05:18:47.909Z,29.13
2022-10-21T05:21:16.088Z,31.17
2022-10-21T05:23:46.150Z,40.60
2022-10-21T05:26:13.512Z,35.57
2022-10-21T05:28:40.853Z,33.77
2022-10-21T05:31:07.978Z,33.40
2022-10-21T05:33:35.610Z,31.87
2022-10-21T05:36:08.585Z,32.87
2022-10-21T05:38:48.400Z,33.33
2022-10-21T05:41:18.119Z,30.93
2022-10-21T05:43:46.279Z,31.47
2022-10-21T05:46:14.377Z,32.10
2022-10-21T05:48:42.435Z,33.00
2022-10-21T05:51:10.346Z,31.40
2022-10-21T05:53:40.004Z,30.43
2022-10-21T05:56:08.906Z,30.30
2022-10-21T05:58:38.351Z,31.90
2022-10-21T06:01:05.948Z,32.13
2022-10-21T06:03:35.317Z,29.97
2022-10-21T06:06:08.292Z,31.20
2022-10-21T06:08:40.147Z,30.00
2022-10-21T06:11:14.107Z,30.70
2022-10-21T06:13:42.544Z,28.77
2022-10-21T06:16:12.625Z,31.03
2022-10-21T06:18:42.303Z,31.90
2022-10-21T06:23:41.766Z,40.10
2022-10-21T06:26:15.504Z,36.30
2022-10-21T06:28:47.163Z,32.43
2022-10-21T06:31:17.941Z,32.80
2022-10-21T06:33:45.785Z,34.53
2022-10-21T06:36:15.441Z,32.47
2022-10-21T06:38:44.791Z,32.07
2022-10-21T06:41:18.958Z,34.67
2022-10-21T06:43:46.716Z,33.23
2022-10-21T06:46:17.108Z,32.33
2022-10-21T06:48:47.430Z,32.00
2022-10-21T06:51:18.200Z,32.20
2022-10-21T06:53:46.349Z,32.17
2022-10-21T06:56:18.918Z,29.33
2022-10-21T06:58:49.654Z,30.30
2022-10-21T07:01:33.408Z,32.40
2022-10-21T07:04:06.438Z,31.07
2022-10-21T07:06:34.689Z,30.97
2022-10-21T07:09:03.182Z,31.47
2022-10-21T07:11:35.375Z,30.07
2022-10-21T07:14:10.828Z,31.37
2022-10-21T07:16:38.768Z,29.23
2022-10-21T07:19:06.828Z,30.03
2022-10-21T07:21:34.304Z,30.73
2022-10-21T07:24:01.566Z,30.60
2022-10-21T07:26:33.382Z,31.27
2022-10-21T07:29:01.805Z,30.20
2022-10-21T07:31:38.502Z,29.33
2022-10-21T07:34:09.826Z,31.87
2022-10-21T07:36:42.879Z,30.10
2022-10-21T07:39:15.290Z,29.97
2022-10-21T07:41:45.637Z,27.13
2022-10-21T07:44:13.236Z,27.93
2022-10-21T07:53:10.245Z,27.07
2022-10-21T07:58:21.603Z,29.90
2022-10-21T08:00:49.177Z,28.97
2022-10-21T08:03:25.282Z,30.50
2022-10-21T08:05:53.242Z,30.23
2022-10-21T08:27:17.927Z,19.27
2022-10-21T08:29:47.442Z,18.70
2022-10-21T08:32:15.135Z,19.63
2022-10-21T08:34:49.965Z,19.00
2022-10-21T08:37:25.502Z,20.57
2022-10-21T08:40:04.568Z,19.60
2022-10-21T08:42:31.897Z,18.93
2022-10-21T08:45:08.443Z,18.77
2022-10-21T08:47:54.416Z,18.90
2022-10-21T08:50:28.982Z,18.33
2022-10-21T08:53:16.427Z,18.03
2022-10-21T08:55:49.815Z,18.60
2022-10-21T08:58:22.720Z,17.37
2022-10-21T09:00:58.507Z,16.47
2022-10-21T09:03:55.877Z,17.77
2022-10-21T09:06:34.694Z,15.93
2022-10-21T09:09:24.015Z,17.07
2022-10-21T09:12:24.017Z,15.17
2022-10-21T09:18:02.361Z,15.37
2022-10-21T09:23:37.610Z,15.70
2022-10-21T09:26:25.429Z,15.83
2022-10-21T09:28:56.448Z,18.43
2022-10-21T09:31:23.798Z,17.20
2022-10-21T09:34:00.646Z,16.43
2022-10-21T09:36:37.170Z,14.70
2022-10-21T09:39:30.426Z,14.87
2022-10-21T09:42:01.684Z,14.17
2022-10-21T09:44:41.306Z,14.73
2022-10-21T09:47:35.792Z,14.50
2022-10-21T09:50:34.837Z,13.03
2022-10-21T09:53:43.567Z,14.87
2022-10-21T09:56:50.570Z,15.67
2022-10-21T09:59:41.555Z,14.77
2022-10-21T10:02:22.339Z,13.93
2022-10-21T10:04:59.556Z,12.83
2022-10-21T10:07:28.509Z,12.57
2022-10-21T10:21:20.239Z,12.70
2022-10-21T10:26:46.051Z,12.10
2022-10-21T10:29:16.488Z,13.00
2022-10-21T10:33:07.838Z,11.87
2022-10-21T10:35:36.399Z,10.63
2022-10-21T10:38:09.373Z,10.70
2022-10-21T10:40:43.548Z,10.80
2022-10-21T10:43:29.844Z,10.80
2022-10-21T10:46:12.700Z,10.70
2022-10-21T10:49:01.927Z,10.43
2022-10-21T10:52:02.760Z,12.03
2022-10-21T10:54:29.889Z,13.00
2022-10-21T10:57:10.999Z,13.50
2022-10-21T11:00:03.295Z,14.13
2022-10-21T11:02:41.340Z,13.00
2022-10-21T11:05:35.705Z,11.37
2022-10-21T11:08:29.753Z,11.87
2022-10-21T11:11:33.617Z,11.03
2022-10-21T11:14:03.561Z,10.07
2022-10-21T11:17:00.901Z,9.90
2022-10-21T11:19:53.030Z,9.57
2022-10-21T11:22:29.656Z,9.23
2022-10-21T11:25:18.070Z,9.87
2022-10-21T11:28:11.067Z,20.00
2022-10-21T11:31:18.810Z,9.63
2022-10-21T11:34:25.267Z,7.83
2022-10-21T11:37:03.443Z,8.03
2022-10-21T11:39:42.108Z,7.80
2022-10-21T11:42:26.021Z,8.93
2022-10-21T11:45:11.609Z,9.10
2022-10-21T11:47:47.406Z,8.30
2022-10-21T11:50:47.905Z,7.60
2022-10-21T11:53:36.536Z,7.13
2022-10-21T11:56:24.549Z,7.60
2022-10-21T12:16:41.948Z,5.80
2022-10-21T12:22:00.607Z,5.87
2022-10-21T12:24:38.576Z,5.57
2022-10-21T12:27:30.110Z,5.67
2022-10-21T12:30:23.577Z,5.70
2022-10-21T12:33:10.549Z,8.80
2022-10-21T12:38:48.009Z,5.50
2022-10-21T12:41:43.997Z,6.23
2022-10-21T12:44:28.425Z,13.00
2022-10-21T12:47:05.746Z,6.47
2022-10-21T12:49:36.874Z,6.03
2022-10-21T12:52:21.906Z,5.90
2022-10-21T12:54:57.975Z,5.97
2022-10-21T12:57:57.089Z,5.80
2022-10-21T13:00:30.144Z,5.97
2022-10-21T13:03:00.487Z,8.77
2022-10-21T13:05:39.546Z,7.50
2022-10-21T13:09:01.615Z,7.33
2022-10-21T13:11:52.353Z,6.90
2022-10-21T13:14:49.971Z,6.40
2022-10-21T13:20:08.044Z,6.10
2022-10-21T13:23:06.233Z,5.47
2022-10-21T13:34:55.852Z,5.80
2022-10-21T13:37:42.724Z,6.30
2022-10-21T13:46:53.122Z,7.13
2022-10-21T13:53:11.622Z,7.23
2022-10-21T13:55:41.377Z,8.43
2022-10-21T14:01:23.646Z,9.77
2022-10-21T14:04:08.584Z,8.23
2022-10-21T14:10:08.422Z,7.60
2022-10-21T14:12:45.547Z,8.13
2022-10-21T14:15:34.024Z,8.00
2022-10-21T14:18:08.752Z,8.40
2022-10-21T14:26:23.042Z,7.90
2022-10-21T14:34:42.603Z,8.80
2022-10-21T14:37:12.721Z,7.67
2022-10-21T14:39:40.999Z,7.37
2022-10-21T14:42:43.693Z,7.00
2022-10-21T14:45:24.944Z,6.83
2022-10-21T14:47:57.805Z,8.13
2022-10-21T14:50:39.076Z,7.67
2022-10-21T14:57:37.591Z,8.83
2022-10-21T14:57:56.785Z,10.03
2022-10-21T15:00:29.148Z,8.70
2022-10-21T15:02:58.737Z,8.50
2022-10-21T15:05:33.578Z,7.80
2022-10-21T15:08:21.776Z,8.90
2022-10-21T15:10:58.209Z,9.00
2022-10-21T15:13:26.914Z,8.77
2022-10-21T15:15:56.606Z,8.40
2022-10-21T15:18:25.493Z,8.07
2022-10-21T15:21:02.369Z,8.40
2022-10-21T15:23:41.471Z,7.40
2022-10-21T15:26:35.895Z,7.07
2022-10-21T15:29:23.630Z,6.97
2022-10-21T15:31:56.024Z,7.47
2022-10-21T15:34:28.578Z,7.23
2022-10-21T15:36:59.485Z,7.53
2022-10-21T15:39:32.314Z,8.80
2022-10-21T15:42:08.962Z,7.93
2022-10-21T15:44:36.984Z,7.73
2022-10-21T15:47:09.731Z,7.07
2022-10-21T15:49:43.679Z,7.23
2022-10-21T15:52:16.030Z,6.20
2022-10-21T15:54:44.100Z,6.37
2022-10-21T15:57:19.897Z,6.43
2022-10-21T15:59:48.611Z,5.70
2022-10-21T16:02:20.107Z,6.80
2022-10-21T16:04:51.210Z,6.37
2022-10-21T16:07:34.702Z,6.47
2022-10-21T16:10:03.985Z,6.40
2022-10-21T16:12:34.096Z,6.23
2022-10-21T16:15:05.177Z,6.80
2022-10-21T16:17:34.377Z,6.77
2022-10-21T16:20:05.747Z,7.53
2022-10-21T16:22:36.238Z,7.00
2022-10-21T16:25:08.488Z,7.63
2022-10-21T16:27:51.040Z,7.50
2022-10-21T16:30:25.896Z,7.90
2022-10-21T16:32:56.095Z,7.30
2022-10-21T16:35:23.534Z,7.47
2022-10-21T16:37:53.016Z,7.97
2022-10-21T16:40:22.718Z,8.43
2022-10-21T16:42:51.155Z,7.70
2022-10-21T16:45:21.644Z,8.33
2022-10-21T16:47:53.084Z,7.60
2022-10-21T16:50:26.538Z,8.27
2022-10-21T16:52:54.004Z,8.33
2022-10-21T16:55:22.780Z,8.23
2022-10-21T16:57:55.671Z,8.07
2022-10-21T17:00:24.656Z,9.50
2022-10-21T17:02:53.091Z,12.67
2022-10-21T17:05:20.850Z,13.73
2022-10-21T17:07:48.411Z,14.10
2022-10-21T17:10:15.963Z,14.90
2022-10-21T17:12:44.551Z,13.90
2022-10-21T17:15:16.313Z,12.93
2022-10-21T17:17:49.277Z,13.57
2022-10-21T17:20:18.229Z,11.67
2022-10-21T17:22:48.002Z,11.37
2022-10-21T17:25:15.672Z,12.13
2022-10-21T17:27:45.299Z,11.87
2022-10-21T17:40:51.481Z,16.77
2022-10-21T17:43:18.515Z,15.60
2022-10-21T17:45:45.996Z,14.37
2022-10-21T17:48:13.507Z,14.50
2022-10-21T17:50:40.741Z,15.57
2022-10-21T17:53:08.497Z,15.13
2022-10-21T17:55:36.199Z,15.43
2022-10-21T17:58:03.961Z,14.43
2022-10-21T18:00:31.071Z,15.30
2022-10-21T18:02:58.409Z,14.57
2022-10-21T18:08:08.001Z,14.30
2022-10-21T18:10:35.188Z,17.47
2022-10-21T18:13:02.290Z,18.63
2022-10-21T18:15:32.142Z,20.20
2022-10-21T18:18:00.061Z,20.43
2022-10-21T18:20:28.228Z,18.97
2022-10-21T18:22:55.329Z,17.80
2022-10-21T18:25:22.705Z,19.20
2022-10-21T18:27:50.905Z,17.40
2022-10-21T18:30:21.628Z,17.97
2022-10-21T18:32:53.394Z,17.27
2022-10-21T18:35:20.943Z,18.67
2022-10-21T18:37:48.165Z,14.77
2022-10-21T18:40:15.541Z,15.17
2022-10-21T18:42:43.391Z,15.97
2022-10-21T18:45:11.289Z,17.17
2022-10-21T18:47:38.780Z,19.37
2022-10-21T18:50:08.673Z,23.23
2022-10-21T18:52:35.647Z,22.33
2022-10-21T18:55:02.890Z,19.63
2022-10-21T18:57:31.662Z,17.63
2022-10-21T18:59:58.902Z,19.10
2022-10-21T19:02:26.222Z,27.07
2022-10-21T19:04:54.956Z,31.93
2022-10-21T19:07:24.684Z,22.93
2022-10-21T19:09:51.878Z,19.27
2022-10-21T19:12:23.152Z,22.73
2022-10-21T19:14:51.694Z,24.60
2022-10-21T19:17:20.416Z,28.20
2022-10-21T19:19:47.411Z,32.60
2022-10-21T19:22:17.557Z,21.77
2022-10-21T19:24:44.779Z,22.73
2022-10-21T19:27:11.944Z,23.67
2022-10-21T19:29:39.009Z,24.13
2022-10-21T19:32:06.259Z,20.47
2022-10-21T19:34:33.387Z,19.70
2022-10-21T19:37:00.482Z,18.77
2022-10-21T19:39:28.828Z,21.35
2022-10-21T19:41:56.476Z,19.50
2022-10-21T19:44:23.413Z,21.40
2022-10-21T19:46:50.976Z,23.70
2022-10-21T19:49:18.784Z,21.40
2022-10-21T19:51:49.623Z,20.20
2022-10-21T19:54:18.773Z,20.57
2022-10-21T19:56:46.173Z,20.70
2022-10-21T19:59:13.670Z,19.60
2022-10-21T20:01:41.292Z,20.60
2022-10-21T20:04:09.038Z,21.07
2022-10-21T20:06:38.020Z,21.03
2022-10-21T20:09:12.322Z,21.47
2022-10-21T20:11:40.855Z,20.57
2022-10-21T20:14:08.610Z,20.47
2022-10-21T20:16:39.710Z,19.93
2022-10-21T20:19:07.256Z,21.87
2022-10-21T20:21:36.691Z,20.17
2022-10-21T20:24:04.628Z,20.33
2022-10-21T20:26:34.697Z,21.80
2022-10-21T20:29:02.478Z,23.73
2022-10-21T20:31:30.243Z,24.37
2022-10-21T20:33:57.277Z,24.30
2022-10-21T20:36:34.725Z,22.87
2022-10-21T20:39:03.383Z,22.07
2022-10-21T20:41:36.080Z,22.30
2022-10-21T20:44:05.418Z,21.20
2022-10-21T20:46:35.460Z,22.93
2022-10-21T20:49:04.134Z,23.27
2022-10-21T20:51:33.378Z,21.00
2022-10-21T20:54:03.557Z,23.63
2022-10-21T20:56:33.554Z,21.87
2022-10-21T21:39:45.583Z,23.93
2022-10-21T23:04:23.452Z,22.30
2022-10-21T23:22:42.629Z,24.43
2022-10-21T23:40:04.035Z,31.38
2022-10-21T23:46:11.985Z,23.57
2022-10-21T23:56:14.593Z,24.80
